createdAt,value
2019-02-14T00:01:43.114Z,41.67
2019-02-14T00:04:12.344Z,40.57
2019-02-14T00:06:41.509Z,45.80
2019-02-14T00:09:10.732Z,50.07
2019-02-14T00:11:39.980Z,42.87
2019-02-14T00:14:09.204Z,46.20
2019-02-14T00:16:38.409Z,40.43
2019-02-14T00:19:08.105Z,43.83
2019-02-14T00:21:37.266Z,43.57
2019-02-14T00:24:06.416Z,41.17
2019-02-14T00:26:35.653Z,42.80
2019-02-14T00:29:04.947Z,43.27
2019-02-14T00:31:34.140Z,43.30
2019-02-14T00:34:03.344Z,40.27
2019-02-14T00:36:32.536Z,42.17
2019-02-14T00:39:01.693Z,43.47
2019-02-14T00:41:30.910Z,40.87
2019-02-14T00:44:00.223Z,43.77
2019-02-14T00:46:29.436Z,44.53
2019-02-14T00:48:58.803Z,43.47
2019-02-14T00:51:28.032Z,43.23
2019-02-14T00:53:57.356Z,46.00
2019-02-14T00:56:26.627Z,42.50
2019-02-14T00:58:55.966Z,41.70
2019-02-14T01:01:25.157Z,37.87
2019-02-14T01:03:54.399Z,40.53
2019-02-14T01:06:23.601Z,42.93
2019-02-14T01:08:52.816Z,39.73
2019-02-14T01:11:22.052Z,39.33
2019-02-14T01:13:51.241Z,44.33
2019-02-14T01:16:20.407Z,42.93
2019-02-14T01:18:49.698Z,46.60
2019-02-14T01:21:19.019Z,43.10
2019-02-14T01:23:48.280Z,43.77
2019-02-14T01:26:17.461Z,45.47
2019-02-14T01:28:46.683Z,47.47
2019-02-14T01:31:16.032Z,45.63
2019-02-14T01:33:45.318Z,51.27
2019-02-14T01:36:14.977Z,51.53
2019-02-14T01:38:44.172Z,57.27
2019-02-14T01:41:13.353Z,55.73
2019-02-14T01:43:42.552Z,48.17
2019-02-14T01:46:11.835Z,48.97
2019-02-14T01:48:41.057Z,45.40
2019-02-14T01:51:10.223Z,45.40
2019-02-14T01:53:39.385Z,43.13
2019-02-14T01:56:08.582Z,50.43
2019-02-14T01:58:37.771Z,46.70
2019-02-14T02:01:06.947Z,43.80
2019-02-14T02:03:36.168Z,46.47
2019-02-14T02:06:05.328Z,51.93
2019-02-14T02:08:34.484Z,49.23
2019-02-14T02:11:03.946Z,50.30
2019-02-14T02:13:33.287Z,47.87
2019-02-14T02:16:02.488Z,58.70
2019-02-14T02:18:31.813Z,47.83
2019-02-14T02:21:00.971Z,53.87
2019-02-14T02:23:30.167Z,49.17
2019-02-14T02:25:59.294Z,48.63
2019-02-14T02:28:28.484Z,50.07
2019-02-14T02:30:57.669Z,47.93
2019-02-14T02:33:26.840Z,46.83
2019-02-14T02:36:00.401Z,51.57
2019-02-14T02:38:26.956Z,53.73
2019-02-14T02:40:56.130Z,51.77
2019-02-14T02:43:25.349Z,49.10
2019-02-14T02:45:54.537Z,50.67
2019-02-14T02:48:23.682Z,47.57
2019-02-14T02:50:52.937Z,50.13
2019-02-14T02:53:22.124Z,49.57
2019-02-14T02:55:51.322Z,48.10
2019-02-14T02:58:20.826Z,48.20
2019-02-14T03:00:49.984Z,46.40
2019-02-14T03:03:19.191Z,49.73
2019-02-14T03:05:48.429Z,54.00
2019-02-14T03:08:17.620Z,50.47
2019-02-14T03:10:46.779Z,46.83
2019-02-14T03:13:16.162Z,54.87
2019-02-14T03:15:45.373Z,56.27
2019-02-14T03:18:14.583Z,52.70
2019-02-14T03:20:43.743Z,51.77
2019-02-14T03:23:12.900Z,54.40
2019-02-14T03:25:42.082Z,50.17
2019-02-14T03:28:11.240Z,51.03
2019-02-14T03:30:40.460Z,55.13
2019-02-14T03:33:09.658Z,51.90
2019-02-14T03:35:38.859Z,54.20
2019-02-14T03:38:08.013Z,48.23
2019-02-14T03:40:37.279Z,55.10
2019-02-14T03:43:06.475Z,60.30
2019-02-14T03:45:35.663Z,57.40
2019-02-14T03:48:04.862Z,54.27
2019-02-14T03:50:34.173Z,55.07
2019-02-14T03:53:03.323Z,53.67
2019-02-14T03:55:32.587Z,52.30
2019-02-14T03:58:02.961Z,57.07
2019-02-14T04:00:32.116Z,55.07
2019-02-14T04:03:01.265Z,52.40
2019-02-14T04:05:30.558Z,53.40
2019-02-14T04:07:59.860Z,59.33
2019-02-14T04:10:29.066Z,58.07
2019-02-14T04:12:58.284Z,51.07
2019-02-14T04:15:27.468Z,55.23
2019-02-14T04:17:56.715Z,50.90
2019-02-14T04:20:26.140Z,53.73
2019-02-14T04:22:55.331Z,51.70
2019-02-14T04:25:24.477Z,47.37
2019-02-14T04:27:53.945Z,46.47
2019-02-14T04:30:27.950Z,43.97
2019-02-14T04:32:57.320Z,45.67
2019-02-14T04:35:26.515Z,44.90
2019-02-14T04:37:55.703Z,48.50
2019-02-14T04:40:33.240Z,48.13
2019-02-14T04:42:56.121Z,44.63
2019-02-14T04:45:25.471Z,51.40
2019-02-14T04:47:54.666Z,50.27
2019-02-14T04:50:23.867Z,43.93
2019-02-14T04:52:53.054Z,44.37
2019-02-14T04:55:22.197Z,44.00
2019-02-14T04:57:51.446Z,46.43
2019-02-14T05:00:22.774Z,43.60
2019-02-14T05:02:51.948Z,42.17
2019-02-14T05:05:21.097Z,47.77
2019-02-14T05:07:50.547Z,49.87
2019-02-14T05:10:20.660Z,54.17
2019-02-14T05:12:49.805Z,52.47
2019-02-14T05:15:18.986Z,50.67
2019-02-14T05:17:48.200Z,51.40
2019-02-14T05:20:17.616Z,47.13
2019-02-14T05:22:46.763Z,49.53
2019-02-14T05:25:15.958Z,46.93
2019-02-14T05:27:45.111Z,47.30
2019-02-14T05:30:14.484Z,42.27
2019-02-14T05:32:43.684Z,45.67
2019-02-14T05:35:12.971Z,42.67
2019-02-14T05:37:42.146Z,42.57
2019-02-14T05:40:12.174Z,37.90
2019-02-14T05:42:41.387Z,45.37
2019-02-14T05:45:11.038Z,47.80
2019-02-14T05:47:40.326Z,48.23
2019-02-14T05:50:09.926Z,45.53
2019-02-14T05:52:39.119Z,47.73
2019-02-14T05:55:09.458Z,47.73
2019-02-14T05:57:38.774Z,46.53
2019-02-14T06:00:09.468Z,43.87
2019-02-14T06:02:38.872Z,45.07
2019-02-14T06:05:08.069Z,45.30
2019-02-14T06:07:37.328Z,39.63
2019-02-14T06:10:07.516Z,41.10
2019-02-14T06:12:36.669Z,44.83
2019-02-14T06:15:06.506Z,50.03
2019-02-14T06:17:35.713Z,47.10
2019-02-14T06:20:05.402Z,48.20
2019-02-14T06:22:34.554Z,52.17
2019-02-14T06:25:03.899Z,50.13
2019-02-14T06:27:33.175Z,49.67
2019-02-14T06:30:02.468Z,51.57
2019-02-14T06:32:31.679Z,54.03
2019-02-14T06:35:00.842Z,53.80
2019-02-14T06:37:30.076Z,50.03
2019-02-14T06:39:59.310Z,54.53
2019-02-14T06:42:28.507Z,51.90
2019-02-14T06:44:57.659Z,46.93
2019-02-14T06:47:26.882Z,52.93
2019-02-14T06:49:56.213Z,49.63
2019-02-14T06:52:25.370Z,50.87
2019-02-14T06:54:54.677Z,52.77
2019-02-14T06:57:23.917Z,60.83
2019-02-14T06:59:53.087Z,57.63
2019-02-14T07:02:22.265Z,58.33
2019-02-14T07:04:51.460Z,53.33
2019-02-14T07:07:20.638Z,49.70
2019-02-14T07:09:49.842Z,49.47
2019-02-14T07:12:19.014Z,40.50
2019-02-14T07:14:48.192Z,39.40
2019-02-14T07:17:17.344Z,46.03
2019-02-14T07:19:46.651Z,41.80
2019-02-14T07:22:15.820Z,46.93
2019-02-14T07:24:45.062Z,45.70
2019-02-14T07:27:14.320Z,44.83
2019-02-14T07:29:43.526Z,46.97
2019-02-14T07:32:12.820Z,40.53
2019-02-14T07:34:42.024Z,41.83
2019-02-14T07:37:11.280Z,35.60
2019-02-14T07:39:40.456Z,35.67
2019-02-14T07:42:09.692Z,36.27
2019-02-14T07:44:38.876Z,34.77
2019-02-14T07:47:08.055Z,36.97
2019-02-14T07:49:37.209Z,36.53
2019-02-14T07:52:06.675Z,31.43
2019-02-14T07:54:35.875Z,38.47
2019-02-14T07:57:05.183Z,35.07
2019-02-14T07:59:34.436Z,34.93
2019-02-14T08:02:03.735Z,35.30
2019-02-14T08:04:32.961Z,34.73
2019-02-14T08:07:02.549Z,32.03
2019-02-14T08:09:31.850Z,41.50
2019-02-14T08:12:02.376Z,35.63
2019-02-14T08:14:31.732Z,32.57
2019-02-14T08:17:02.400Z,32.83
2019-02-14T08:19:31.762Z,31.10
2019-02-14T08:22:01.646Z,29.53
2019-02-14T08:24:30.808Z,30.33
2019-02-14T08:27:00.126Z,32.20
2019-02-14T08:29:29.415Z,29.73
2019-02-14T08:31:58.722Z,30.63
2019-02-14T08:34:27.902Z,30.47
2019-02-14T08:36:57.319Z,32.20
2019-02-14T08:39:26.459Z,28.00
2019-02-14T08:41:55.703Z,30.77
2019-02-14T08:44:24.860Z,28.20
2019-02-14T08:46:54.028Z,26.83
2019-02-14T08:49:23.233Z,29.63
2019-02-14T08:51:52.446Z,25.20
2019-02-14T08:54:21.703Z,24.83
2019-02-14T08:56:50.956Z,25.90
2019-02-14T08:59:20.289Z,25.33
2019-02-14T09:01:49.506Z,24.53
2019-02-14T09:04:18.680Z,25.97
2019-02-14T09:06:48.063Z,26.60
2019-02-14T09:09:17.433Z,24.10
2019-02-14T09:11:46.679Z,26.33
2019-02-14T09:14:15.858Z,25.50
2019-02-14T09:16:45.062Z,21.43
2019-02-14T09:19:14.389Z,22.63
2019-02-14T09:21:43.547Z,22.90
2019-02-14T09:24:12.736Z,22.57
2019-02-14T09:26:41.911Z,20.80
2019-02-14T09:29:13.739Z,20.13
2019-02-14T09:31:42.145Z,19.30
2019-02-14T09:34:11.323Z,20.50
2019-02-14T09:36:40.548Z,18.30
2019-02-14T09:39:09.700Z,23.07
2019-02-14T09:41:38.967Z,17.67
2019-02-14T09:44:08.164Z,18.13
2019-02-14T09:46:37.348Z,20.13
2019-02-14T09:49:06.766Z,18.93
2019-02-14T09:51:35.901Z,16.33
2019-02-14T09:54:05.040Z,16.40
2019-02-14T09:56:34.290Z,18.07
2019-02-14T09:59:03.485Z,16.83
2019-02-14T10:01:32.665Z,17.93
2019-02-14T10:04:01.942Z,18.57
2019-02-14T10:06:36.725Z,17.13
2019-02-14T10:09:02.264Z,16.43
2019-02-14T10:11:31.425Z,15.53
2019-02-14T10:14:00.596Z,14.23
2019-02-14T10:16:29.810Z,15.87
2019-02-14T10:18:58.961Z,15.23
2019-02-14T10:21:28.114Z,17.23
2019-02-14T10:23:57.328Z,16.93
2019-02-14T10:26:26.479Z,15.73
2019-02-14T10:28:55.619Z,14.90
2019-02-14T10:31:24.829Z,18.17
2019-02-14T10:33:53.984Z,13.67
2019-02-14T10:36:23.175Z,13.70
2019-02-14T10:38:52.512Z,16.40
2019-02-14T10:41:21.677Z,15.50
2019-02-14T10:43:50.857Z,15.43
2019-02-14T10:46:20.093Z,13.97
2019-02-14T10:48:49.291Z,15.30
2019-02-14T10:51:18.445Z,14.13
2019-02-14T10:53:47.755Z,11.87
2019-02-14T10:56:17.157Z,14.03
2019-02-14T10:58:46.409Z,14.13
2019-02-14T11:01:15.819Z,10.53
2019-02-14T11:03:45.119Z,13.70
2019-02-14T11:06:14.380Z,9.13
2019-02-14T11:08:43.543Z,12.87
2019-02-14T11:11:12.846Z,9.60
2019-02-14T11:13:42.182Z,12.30
2019-02-14T11:16:11.380Z,9.13
2019-02-14T11:18:44.310Z,8.83
2019-02-14T11:21:11.557Z,8.40
2019-02-14T11:23:40.727Z,8.70
2019-02-14T11:26:09.880Z,8.10
2019-02-14T11:28:39.257Z,8.10
2019-02-14T11:31:08.423Z,9.33
2019-02-14T11:33:37.786Z,8.67
2019-02-14T11:36:06.939Z,6.83
2019-02-14T11:38:40.634Z,9.17
2019-02-14T11:41:07.702Z,8.37
2019-02-14T11:43:36.870Z,7.97
2019-02-14T11:46:06.147Z,8.27
2019-02-14T11:48:35.383Z,7.63
2019-02-14T11:51:04.541Z,10.00
2019-02-14T11:53:33.686Z,7.33
2019-02-14T11:56:03.073Z,6.83
2019-02-14T11:58:32.216Z,8.40
2019-02-14T12:01:02.329Z,8.27
2019-02-14T12:03:31.539Z,10.17
2019-02-14T12:06:00.723Z,7.50
2019-02-14T12:08:29.895Z,8.80
2019-02-14T12:10:59.060Z,8.43
2019-02-14T12:13:28.203Z,7.17
2019-02-14T12:15:57.501Z,7.23
2019-02-14T12:18:26.731Z,8.87
2019-02-14T12:20:55.909Z,8.37
2019-02-14T12:23:25.149Z,8.57
2019-02-14T12:25:54.404Z,8.53
2019-02-14T12:28:23.558Z,6.73
2019-02-14T12:30:52.738Z,7.63
2019-02-14T12:33:22.271Z,9.27
2019-02-14T12:35:51.496Z,7.97
2019-02-14T12:38:20.791Z,6.97
2019-02-14T12:40:49.988Z,6.73
2019-02-14T12:43:19.548Z,7.93
2019-02-14T12:45:48.711Z,8.73
2019-02-14T12:48:18.329Z,7.77
2019-02-14T12:50:47.523Z,6.53
2019-02-14T12:53:16.683Z,6.93
2019-02-14T12:55:47.688Z,7.63
2019-02-14T12:58:16.976Z,7.83
2019-02-14T13:00:46.158Z,6.97
2019-02-14T13:03:15.366Z,8.00
2019-02-14T13:05:44.634Z,7.07
2019-02-14T13:08:13.896Z,8.93
2019-02-14T13:10:43.143Z,7.90
2019-02-14T13:13:12.421Z,7.63
2019-02-14T13:15:42.084Z,7.33
2019-02-14T13:18:11.233Z,7.87
2019-02-14T13:20:40.392Z,7.90
2019-02-14T13:23:09.609Z,7.67
2019-02-14T13:25:38.787Z,6.17
2019-02-14T13:28:07.968Z,7.87
2019-02-14T13:30:38.446Z,9.07
2019-02-14T13:33:07.779Z,7.70
2019-02-14T13:35:36.970Z,6.73
2019-02-14T13:38:06.375Z,7.80
2019-02-14T13:40:35.532Z,6.77
2019-02-14T13:43:04.718Z,7.17
2019-02-14T13:45:33.914Z,8.20
2019-02-14T13:48:03.101Z,9.77
2019-02-14T13:50:32.243Z,6.87
2019-02-14T13:53:02.591Z,9.17
2019-02-14T13:55:31.791Z,6.10
2019-02-14T13:58:01.022Z,6.57
2019-02-14T14:00:31.786Z,6.23
2019-02-14T14:03:02.466Z,8.10
2019-02-14T14:05:31.667Z,8.37
2019-02-14T14:08:00.845Z,8.73
2019-02-14T14:10:30.047Z,9.00
2019-02-14T14:12:59.418Z,9.50
2019-02-14T14:15:28.596Z,7.67
2019-02-14T14:17:57.888Z,8.43
2019-02-14T14:20:27.144Z,7.60
2019-02-14T14:22:56.482Z,6.77
2019-02-14T14:25:25.919Z,7.30
2019-02-14T14:27:55.213Z,6.40
2019-02-14T14:30:24.835Z,6.33
2019-02-14T14:32:54.035Z,6.43
2019-02-14T14:35:23.232Z,8.33
2019-02-14T14:37:52.443Z,9.00
2019-02-14T14:40:22.342Z,8.00
2019-02-14T14:43:10.439Z,6.57
2019-02-14T14:45:57.987Z,7.27
2019-02-14T14:48:30.539Z,7.47
2019-02-14T14:50:59.956Z,8.17
2019-02-14T14:53:29.355Z,5.47
2019-02-14T14:55:58.605Z,5.43
2019-02-14T14:58:27.896Z,6.90
2019-02-14T15:00:57.102Z,7.17
2019-02-14T15:03:26.278Z,6.70
2019-02-14T15:05:55.469Z,5.37
2019-02-14T15:08:24.701Z,6.00
2019-02-14T15:10:53.873Z,6.83
2019-02-14T15:13:23.148Z,6.17
2019-02-14T15:15:52.456Z,7.87
2019-02-14T15:18:21.737Z,11.80
2019-02-14T15:20:50.979Z,9.57
2019-02-14T15:23:20.289Z,6.17
2019-02-14T15:25:49.448Z,8.37
2019-02-14T15:28:18.710Z,6.17
2019-02-14T15:30:47.924Z,8.07
2019-02-14T15:33:17.076Z,6.47
2019-02-14T15:35:46.259Z,6.27
2019-02-14T15:38:15.463Z,7.20
2019-02-14T15:40:44.822Z,9.47
2019-02-14T15:43:13.989Z,7.03
2019-02-14T15:45:43.441Z,7.83
2019-02-14T15:48:12.679Z,10.27
2019-02-14T15:50:42.382Z,7.67
2019-02-14T15:53:11.638Z,9.20
2019-02-14T15:55:41.771Z,7.70
2019-02-14T15:58:12.806Z,9.77
2019-02-14T16:00:42.045Z,9.90
2019-02-14T16:03:11.347Z,8.83
2019-02-14T16:05:43.321Z,9.57
2019-02-14T16:08:12.475Z,11.43
2019-02-14T16:10:41.812Z,11.80
2019-02-14T16:13:11.017Z,12.07
2019-02-14T16:15:40.231Z,10.27
2019-02-14T16:18:09.531Z,8.77
2019-02-14T16:20:40.397Z,9.90
2019-02-14T16:23:09.777Z,11.57
2019-02-14T16:25:39.060Z,10.80
2019-02-14T16:28:09.889Z,10.67
2019-02-14T16:30:39.234Z,11.77
2019-02-14T16:33:08.526Z,10.80
2019-02-14T16:35:37.780Z,8.97
2019-02-14T16:38:07.203Z,8.10
2019-02-14T16:40:38.565Z,8.43
2019-02-14T16:43:07.377Z,10.27
2019-02-14T16:45:36.935Z,7.37
2019-02-14T16:48:06.195Z,11.37
2019-02-14T16:50:35.405Z,11.43
2019-02-14T16:53:04.630Z,11.60
2019-02-14T16:55:34.047Z,12.20
2019-02-14T16:58:03.449Z,12.90
2019-02-14T17:00:32.663Z,13.67
2019-02-14T17:03:02.180Z,13.27
2019-02-14T17:05:31.339Z,11.73
2019-02-14T17:08:00.550Z,12.43
2019-02-14T17:10:36.596Z,10.90
2019-02-14T17:13:00.828Z,13.87
2019-02-14T17:15:30.079Z,12.03
2019-02-14T17:17:59.242Z,10.23
2019-02-14T17:20:28.399Z,9.97
2019-02-14T17:22:57.581Z,11.53
2019-02-14T17:25:26.798Z,13.73
2019-02-14T17:27:55.987Z,11.27
2019-02-14T17:30:25.153Z,15.77
2019-02-14T17:32:54.409Z,10.07
2019-02-14T17:35:23.633Z,12.57
2019-02-14T17:37:53.141Z,11.03
2019-02-14T17:43:15.755Z,11.67
2019-02-14T17:45:44.944Z,14.93
2019-02-14T17:48:14.193Z,14.50
2019-02-14T17:50:43.499Z,20.20
2019-02-14T17:53:12.745Z,19.87
2019-02-14T17:55:41.919Z,18.43
2019-02-14T17:58:11.205Z,16.73
2019-02-14T18:00:41.904Z,14.30
2019-02-14T18:03:11.229Z,14.53
2019-02-14T18:05:40.497Z,15.80
2019-02-14T18:08:09.734Z,15.27
2019-02-14T18:10:38.910Z,15.17
2019-02-14T18:13:08.230Z,13.30
2019-02-14T18:15:37.448Z,17.43
2019-02-14T18:18:06.622Z,15.90
2019-02-14T18:20:35.863Z,18.70
2019-02-14T18:23:05.318Z,17.27
2019-02-14T18:25:34.493Z,18.00
2019-02-14T18:28:03.717Z,20.60
2019-02-14T18:30:33.061Z,18.83
2019-02-14T18:33:02.612Z,17.60
2019-02-14T18:35:31.781Z,16.07
2019-02-14T18:38:01.095Z,16.83
2019-02-14T18:40:30.281Z,18.30
2019-02-14T18:42:59.478Z,19.73
2019-02-14T18:45:28.654Z,19.80
2019-02-14T18:47:57.932Z,17.00
2019-02-14T18:50:27.158Z,18.73
2019-02-14T18:52:56.377Z,18.67
2019-02-14T18:55:27.679Z,27.40
2019-02-14T18:57:57.162Z,24.77
2019-02-14T19:00:26.476Z,21.40
2019-02-14T19:02:55.750Z,21.73
2019-02-14T19:05:25.081Z,21.67
2019-02-14T19:07:54.292Z,18.93
2019-02-14T19:10:23.530Z,21.07
2019-02-14T19:12:52.937Z,19.53
2019-02-14T19:15:22.183Z,17.00
2019-02-14T19:17:51.414Z,16.13
2019-02-14T19:20:20.905Z,23.73
2019-02-14T19:22:50.201Z,22.30
2019-02-14T19:25:19.373Z,30.77
2019-02-14T19:27:48.607Z,27.93
2019-02-14T19:30:17.945Z,22.27
2019-02-14T19:32:47.519Z,17.73
2019-02-14T19:35:22.775Z,17.00
2019-02-14T19:37:47.719Z,16.23
2019-02-14T19:40:17.132Z,15.83
2019-02-14T19:42:46.493Z,14.70
2019-02-14T19:45:15.948Z,12.93
2019-02-14T19:47:45.182Z,14.17
2019-02-14T19:50:14.569Z,17.73
2019-02-14T19:52:43.863Z,15.83
2019-02-14T19:55:13.264Z,14.63
2019-02-14T19:57:45.003Z,14.60
2019-02-14T20:00:14.652Z,15.67
2019-02-14T20:02:44.238Z,14.73
2019-02-14T20:05:13.462Z,16.77
2019-02-14T20:07:42.863Z,16.03
2019-02-14T20:10:13.499Z,16.47
2019-02-14T20:12:43.062Z,16.07
2019-02-14T20:15:13.799Z,18.03
2019-02-14T20:17:43.089Z,16.23
2019-02-14T20:20:13.442Z,18.33
2019-02-14T20:22:42.699Z,18.37
2019-02-14T20:25:13.454Z,17.43
2019-02-14T20:27:42.679Z,16.93
2019-02-14T20:30:11.903Z,19.27
2019-02-14T20:32:41.333Z,20.67
2019-02-14T20:35:10.628Z,19.17
2019-02-14T20:37:39.926Z,21.40
2019-02-14T20:40:09.521Z,20.03
2019-02-14T20:42:39.012Z,17.93
2019-02-14T20:45:09.191Z,25.80
2019-02-14T20:47:38.832Z,25.77
2019-02-14T20:50:10.595Z,26.53
2019-02-14T20:52:40.048Z,25.73
2019-02-14T20:55:11.269Z,18.60
2019-02-14T20:57:41.106Z,18.03
2019-02-14T21:00:20.325Z,16.27
2019-02-14T21:02:49.617Z,14.10
2019-02-14T21:05:18.875Z,20.43
2019-02-14T21:07:48.132Z,17.80
2019-02-14T21:10:17.772Z,20.07
2019-02-14T21:12:47.446Z,17.03
2019-02-14T21:15:16.693Z,16.87
2019-02-14T21:17:46.070Z,15.90
2019-02-14T21:20:15.567Z,16.80
2019-02-14T21:22:44.772Z,15.67
2019-02-14T21:25:14.181Z,15.13
2019-02-14T21:27:43.913Z,15.50
2019-02-14T21:30:13.920Z,15.33
2019-02-14T21:32:43.222Z,17.40
2019-02-14T21:35:12.751Z,15.83
2019-02-14T21:37:42.275Z,16.77
2019-02-14T21:40:12.540Z,15.57
2019-02-14T21:42:41.726Z,18.77
2019-02-14T21:45:12.199Z,17.87
2019-02-14T21:47:41.524Z,17.77
2019-02-14T21:50:11.237Z,14.37
2019-02-14T21:52:40.632Z,17.63
2019-02-14T21:55:10.977Z,18.20
2019-02-14T21:57:40.255Z,15.73
2019-02-14T22:00:12.770Z,20.83
2019-02-14T22:02:42.705Z,18.43
2019-02-14T22:05:12.134Z,19.63
2019-02-14T22:07:41.466Z,16.43
2019-02-14T22:10:12.941Z,20.97
2019-02-14T22:12:43.504Z,21.20
2019-02-14T22:15:14.743Z,19.87
2019-02-14T22:17:44.180Z,18.20
2019-02-14T22:20:15.014Z,16.70
2019-02-14T22:22:44.349Z,16.13
2019-02-14T22:25:13.682Z,16.63
2019-02-14T22:27:43.053Z,15.67
2019-02-14T22:30:14.559Z,13.13
2019-02-14T22:32:44.000Z,14.10
2019-02-14T22:35:13.353Z,14.03
2019-02-14T22:37:42.581Z,15.80
2019-02-14T22:40:12.297Z,18.47
2019-02-14T22:42:47.237Z,14.83
2019-02-14T22:45:13.581Z,15.50
2019-02-14T22:47:43.202Z,14.27
2019-02-14T22:50:14.045Z,15.97
2019-02-14T22:52:43.460Z,11.97
2019-02-14T22:55:12.751Z,13.37
2019-02-14T22:57:42.041Z,15.23
2019-02-14T23:00:29.939Z,14.83
2019-02-14T23:02:59.282Z,14.37
2019-02-14T23:05:28.490Z,13.67
2019-02-14T23:07:57.799Z,15.37
2019-02-14T23:10:27.057Z,13.53
2019-02-14T23:12:56.412Z,13.73
2019-02-14T23:15:25.667Z,14.97
2019-02-14T23:17:55.244Z,14.13
2019-02-14T23:20:24.726Z,17.23
2019-02-14T23:22:54.022Z,14.27
2019-02-14T23:25:23.176Z,17.10
2019-02-14T23:27:52.448Z,17.10
2019-02-14T23:30:21.690Z,17.90
2019-02-14T23:32:50.912Z,15.77
2019-02-14T23:35:20.139Z,16.97
2019-02-14T23:37:49.346Z,17.13
2019-02-14T23:40:20.735Z,12.63
2019-02-14T23:42:49.919Z,15.00
2019-02-14T23:45:19.227Z,16.50
2019-02-14T23:47:48.403Z,16.67
2019-02-14T23:50:20.434Z,15.50
2019-02-14T23:52:49.644Z,15.37
2019-02-14T23:55:18.834Z,16.93
2019-02-14T23:57:48.022Z,15.23
